St. Paul Lake Elmo, MN

8:10 AM CST on November 20, 2019 (GMT -0600)
St. Paul Lake Elmo

Weather History for K21D - September, 2019

Change the Weather History Date:

Monday, September 30, 2019

  Actual Average (KSTP) Record (KSTP)
Temperature  
Mean Temperature 70 °F -  
Max Temperature 82 °F 63 °F 84 °F (2002)
Min Temperature 57 °F 42 °F 33 °F (2003)
Cooling Degree Days 4    
Growing Degree Days 20 (Base 50)    
Moisture  
Dew Point 68 °F    
Average Humidity 91    
Maximum Humidity 100    
Minimum Humidity 74    
Precipitation  
Precipitation 0.11 in - - ()
Sea Level Pressure  
Sea Level Pressure 29.79 in    
Wind  
Wind Speed 8 mph (SSE)    
Max Wind Speed 15 mph    
Max Gust Speed 25 mph    
Visibility 8 miles    
Events Rain , Thunderstorm    
Averages and records for this station are not official NWS values.
T = Trace of Precipitation, MM = Missing Value Source: NWS Daily Summary

Daily Weather History Graph

Daily Weather History Graph

Search for Another Location

Airport or City:

Astronomy

Sep. 30, 2019 Rise Set
Actual Time 7:08 AM CDT 6:54 PM CDT
Civil Twilight 6:38 AM CDT 7:23 PM CDT
Nautical Twilight 6:04 AM CDT 7:57 PM CDT
Astronomical Twilight 5:29 AM CDT 8:31 PM CDT
Moon 9:16 AM CDT (9/30) 8:24 PM CDT (9/30)
Length of Visible Light 12h 44m
Length of Day
11h 46m
Waxing Crescent, 6% of the Moon is Illuminated
Sep 30
Waxing Crescent
Oct 5
First Quarter
Oct 13
Full
Oct 21
Last Quarter
Oct 27
New

Hourly Weather History & Observations

Time (CDT) Temp. Heat Index Dew Point Humidity Pressure Visibility Wind Dir Wind Speed Gust Speed Precip Events Conditions
12:15 AM 57.2 °F - 57.2 °F 100% 29.96 in 10.0 mi East 8.1 mph - 0.01 in Rain , Thunderstorm Light Thunderstorms and Rain
12:35 AM 57.2 °F - 57.2 °F 100% 29.96 in 10.0 mi East 6.9 mph - 0.01 in Thunderstorm Overcast
12:36 AM 57.2 °F - 57.2 °F 100% 29.96 in 10.0 mi East 8.1 mph - 0.01 in Thunderstorm Overcast
12:55 AM 59.0 °F - 57.2 °F 94% 29.95 in 10.0 mi SE 4.6 mph - 0.01 in   Overcast
12:56 AM 59.0 °F - 57.2 °F 94% 29.94 in 10.0 mi SE 5.8 mph - 0.01 in   Overcast
1:18 AM 59.0 °F - 59.0 °F 100% 29.93 in 10.0 mi ESE 8.1 mph - N/A   Overcast
1:37 AM 59.0 °F - 59.0 °F 100% 29.93 in 10.0 mi East 5.8 mph - N/A   Overcast
1:55 AM 59.0 °F - 59.0 °F 100% 29.92 in 10.0 mi East 6.9 mph - N/A   Overcast
1:56 AM 59.0 °F - 59.0 °F 100% 29.92 in 10.0 mi East 8.1 mph - N/A   Overcast
2:15 AM 59.0 °F - 59.0 °F 100% 29.92 in 10.0 mi ESE 5.8 mph - N/A   Overcast
2:16 AM 59.0 °F - 59.0 °F 100% 29.92 in 10.0 mi ESE 5.8 mph - N/A   Overcast
2:35 AM 59.0 °F - 59.0 °F 100% 29.90 in 7.0 mi ESE 6.9 mph - N/A   Overcast
2:39 AM 59.0 °F - 59.0 °F 100% 29.90 in 10.0 mi ESE 8.1 mph - N/A   Overcast
2:57 AM 60.8 °F - 60.8 °F 100% 29.90 in 7.0 mi SE 5.8 mph - N/A   Overcast
3:15 AM 60.8 °F - 60.8 °F 100% 29.89 in 7.0 mi SE 9.2 mph - N/A   Overcast
3:35 AM 60.8 °F - 60.8 °F 100% 29.87 in 7.0 mi SE 9.2 mph - N/A   Overcast
3:36 AM 60.8 °F - 60.8 °F 100% 29.87 in 5.0 mi SE 9.2 mph - N/A   Overcast
3:55 AM 60.8 °F - 60.8 °F 100% 29.87 in 5.0 mi SE 9.2 mph - N/A   Overcast
3:56 AM 60.8 °F - 60.8 °F 100% 29.87 in 5.0 mi SE 9.2 mph - N/A   Overcast
4:18 AM 62.6 °F - 60.8 °F 94% 29.86 in 4.0 mi SE 11.5 mph - N/A   Overcast
4:37 AM 62.6 °F - 62.6 °F 100% 29.85 in 3.0 mi SE 9.2 mph - N/A   Overcast
5:15 AM 62.6 °F - 62.6 °F 100% 29.84 in 3.0 mi SSE 8.1 mph - N/A   Overcast
5:16 AM 62.6 °F - 62.6 °F 100% 29.84 in 3.0 mi SSE 9.2 mph - N/A   Overcast
5:35 AM 62.6 °F - 62.6 °F 100% 29.83 in 4.0 mi SE 8.1 mph - N/A   Overcast
5:57 AM 62.6 °F - 62.6 °F 100% 29.82 in 5.0 mi SSE 9.2 mph - 0.02 in Rain Light Rain
6:15 AM 64.4 °F - 64.4 °F 100% 29.81 in 5.0 mi SSE 11.5 mph - N/A   Overcast
6:35 AM 64.4 °F - 64.4 °F 100% 29.79 in 5.0 mi SSE 12.7 mph 17.3 mph N/A   Overcast
6:36 AM 64.4 °F - 64.4 °F 100% 29.79 in 5.0 mi SSE 11.5 mph 17.3 mph N/A   Overcast
6:55 AM 64.4 °F - 64.4 °F 100% 29.77 in 7.0 mi SSE 9.2 mph 18.4 mph N/A   Overcast
6:56 AM 64.4 °F - 64.4 °F 100% 29.77 in 7.0 mi SSE 11.5 mph 18.4 mph N/A   Overcast
7:18 AM 66.2 °F - 66.2 °F 100% 29.76 in 7.0 mi SSE 11.5 mph - N/A   Overcast
7:37 AM 68.0 °F - 68.0 °F 100% 29.76 in 7.0 mi SSE 11.5 mph - N/A   Overcast
7:56 AM 68.0 °F - 68.0 °F 100% 29.75 in 7.0 mi SSE 13.8 mph 17.3 mph N/A   Overcast
8:15 AM 69.8 °F - 68.0 °F 94% 29.75 in 7.0 mi South 12.7 mph 18.4 mph N/A   Overcast
8:16 AM 69.8 °F - 68.0 °F 94% 29.75 in 7.0 mi South 13.8 mph 18.4 mph N/A   Overcast
8:39 AM 69.8 °F - 68.0 °F 94% 29.77 in 7.0 mi South 10.4 mph - N/A   Overcast
8:58 AM 69.8 °F - 69.8 °F 100% 29.77 in 7.0 mi South 6.9 mph - N/A   Overcast
9:15 AM 69.8 °F - 69.8 °F 100% 29.77 in 7.0 mi South 6.9 mph - N/A   Overcast
9:35 AM 71.6 °F - 69.8 °F 94% 29.77 in 7.0 mi South 5.8 mph - N/A   Overcast
9:36 AM 71.6 °F - 69.8 °F 94% 29.77 in 7.0 mi South 5.8 mph - N/A   Overcast
9:55 AM 71.6 °F - 69.8 °F 94% 29.76 in 5.0 mi South 8.1 mph - N/A   Overcast
9:56 AM 71.6 °F - 69.8 °F 94% 29.76 in 7.0 mi South 6.9 mph - N/A   Overcast
10:18 AM 71.6 °F - 69.8 °F 94% 29.76 in 7.0 mi South 6.9 mph - N/A   Overcast
10:37 AM 71.6 °F - 69.8 °F 94% 29.76 in 5.0 mi SSE 5.8 mph - N/A   Overcast
11:15 AM 73.4 °F - 71.6 °F 94% 29.75 in 7.0 mi SSE 8.1 mph - N/A   Overcast
11:16 AM 73.4 °F - 71.6 °F 94% 29.75 in 7.0 mi SSE 8.1 mph - N/A   Overcast
11:35 AM 73.4 °F - 71.6 °F 94% 29.75 in 7.0 mi SSE 6.9 mph - N/A   Overcast
11:39 AM 73.4 °F - 71.6 °F 94% 29.75 in 7.0 mi SSE 5.8 mph - N/A   Overcast
11:56 AM 73.4 °F - 71.6 °F 94% 29.75 in 7.0 mi SSE 9.2 mph - N/A   Overcast
12:15 PM 73.4 °F - 71.6 °F 94% 29.74 in 7.0 mi South 6.9 mph - N/A   Overcast
12:16 PM 73.4 °F - 71.6 °F 94% 29.74 in 7.0 mi South 6.9 mph - N/A   Overcast
12:35 PM 77.0 °F - 71.6 °F 83% 29.73 in 7.0 mi South 11.5 mph - N/A   Mostly Cloudy
12:36 PM 77.0 °F - 71.6 °F 83% 29.73 in 7.0 mi South 12.7 mph - N/A   Mostly Cloudy
12:58 PM 78.8 °F - 71.6 °F 78% 29.73 in 7.0 mi South 12.7 mph - N/A   Overcast
1:16 PM 78.8 °F - 71.6 °F 78% 29.73 in 10.0 mi South 13.8 mph 18.4 mph N/A   Overcast
1:36 PM 78.8 °F - 71.6 °F 78% 29.73 in 7.0 mi South 11.5 mph - N/A   Overcast
1:55 PM 78.8 °F - 71.6 °F 78% 29.72 in 7.0 mi SSE 9.2 mph - N/A   Overcast
1:56 PM 78.8 °F - 71.6 °F 78% 29.72 in 7.0 mi SSE 9.2 mph - N/A   Overcast
2:15 PM 78.8 °F - 71.6 °F 78% 29.71 in 7.0 mi SSE 10.4 mph - N/A   Overcast
2:19 PM 78.8 °F - 71.6 °F 78% 29.71 in 7.0 mi SSE 9.2 mph - N/A   Overcast
2:38 PM 78.8 °F - 73.4 °F 83% 29.71 in 7.0 mi SSE 5.8 mph - N/A   Overcast
2:55 PM 78.8 °F - 73.4 °F 83% 29.71 in 7.0 mi SSE 8.1 mph - N/A   Mostly Cloudy
3:15 PM 80.6 °F 85.4 °F 73.4 °F 79% 29.71 in 7.0 mi SSE 9.2 mph - N/A   Mostly Cloudy
3:35 PM 80.6 °F 85.4 °F 73.4 °F 79% 29.70 in 10.0 mi SSE 9.2 mph - N/A   Mostly Cloudy
3:36 PM 80.6 °F 85.4 °F 73.4 °F 79% 29.70 in 10.0 mi South 9.2 mph - N/A   Mostly Cloudy
3:58 PM 82.4 °F 88.2 °F 73.4 °F 74% 29.70 in 7.0 mi South 10.4 mph - N/A   Mostly Cloudy
4:16 PM 82.4 °F 88.2 °F 73.4 °F 74% 29.70 in 10.0 mi South 8.1 mph - N/A   Mostly Cloudy
4:36 PM 82.4 °F 88.2 °F 73.4 °F 74% 29.70 in 7.0 mi SSW 10.4 mph - N/A   Scattered Clouds
4:55 PM 82.4 °F 88.2 °F 73.4 °F 74% 29.70 in 7.0 mi SSW 8.1 mph - N/A   Scattered Clouds
4:56 PM 82.4 °F 88.2 °F 73.4 °F 74% 29.70 in 7.0 mi SSW 6.9 mph - N/A   Scattered Clouds
5:15 PM 82.4 °F 88.2 °F 73.4 °F 74% 29.71 in 7.0 mi South 5.8 mph - N/A   Scattered Clouds
5:19 PM 82.4 °F 88.2 °F 73.4 °F 74% 29.71 in 7.0 mi South 4.6 mph - N/A   Scattered Clouds
5:38 PM 82.4 °F 88.2 °F 73.4 °F 74% 29.71 in 7.0 mi South 4.6 mph - N/A   Mostly Cloudy
5:56 PM 82.4 °F 88.2 °F 73.4 °F 74% 29.71 in 10.0 mi SSW 6.9 mph - N/A   Scattered Clouds
6:15 PM 80.6 °F 84.6 °F 71.6 °F 74% 29.71 in 10.0 mi South 5.8 mph - N/A   Clear
6:35 PM 78.8 °F - 71.6 °F 78% 29.71 in 7.0 mi South 5.8 mph - N/A   Clear
6:39 PM 78.8 °F - 71.6 °F 78% 29.70 in 7.0 mi South 4.6 mph - N/A   Clear
6:58 PM 78.8 °F - 71.6 °F 78% 29.70 in 5.0 mi SSE 5.8 mph - N/A   Haze
7:15 PM 77.0 °F - 71.6 °F 83% 29.71 in 10.0 mi South 4.6 mph - N/A   Clear
7:35 PM 77.0 °F - 71.6 °F 83% 29.69 in 10.0 mi South 6.9 mph - N/A   Clear
7:36 PM 77.0 °F - 71.6 °F 83% 29.70 in 10.0 mi South 6.9 mph - N/A   Clear
7:55 PM 77.0 °F - 71.6 °F 83% 29.70 in 10.0 mi SSW 9.2 mph - 0.01 in Rain , Thunderstorm Light Thunderstorms and Rain
7:59 PM 77.0 °F - 71.6 °F 83% 29.72 in 10.0 mi SW 9.2 mph - 0.01 in Rain Light Rain
8:16 PM 77.0 °F - 73.4 °F 89% 29.73 in 5.0 mi WSW 15.0 mph 25.3 mph 0.05 in Rain Heavy Rain
8:35 PM 73.4 °F - 71.6 °F 94% 29.77 in 7.0 mi SW 6.9 mph - 0.07 in Thunderstorm Mostly Cloudy
8:55 PM 73.4 °F - 71.6 °F 94% 29.76 in 10.0 mi Calm Calm - 0.07 in   Mostly Cloudy
8:56 PM 73.4 °F - 71.6 °F 94% 29.76 in 10.0 mi Calm Calm - 0.07 in   Overcast
9:15 PM 71.6 °F - 71.6 °F 100% 29.78 in 10.0 mi Calm Calm - N/A   Overcast
9:38 PM 71.6 °F - 71.6 °F 100% 29.79 in 10.0 mi SSW 3.5 mph - N/A   Overcast
9:55 PM 73.4 °F - 71.6 °F 94% 29.80 in 10.0 mi West 4.6 mph - N/A   Overcast
10:15 PM 71.6 °F - 69.8 °F 94% 29.81 in 10.0 mi West 8.1 mph - N/A   Mostly Cloudy
10:16 PM 71.6 °F - 69.8 °F 94% 29.81 in 10.0 mi West 10.4 mph - N/A   Mostly Cloudy
10:36 PM 69.8 °F - 68.0 °F 94% 29.82 in 10.0 mi West 10.4 mph - N/A   Mostly Cloudy
10:58 PM 69.8 °F - 66.2 °F 88% 29.82 in 10.0 mi WNW 10.4 mph - N/A   Scattered Clouds
11:16 PM 68.0 °F - 64.4 °F 88% 29.83 in 10.0 mi WNW 9.2 mph - N/A   Clear
11:36 PM 68.0 °F - 64.4 °F 88% 29.83 in 10.0 mi WNW 5.8 mph - N/A   Scattered Clouds
11:55 PM 68.0 °F - 64.4 °F 88% 29.84 in 7.0 mi NW 6.9 mph - N/A   Scattered Clouds
11:56 PM 68.0 °F - 64.4 °F 88% 29.84 in 7.0 mi WNW 6.9 mph - N/A   Scattered Clouds